Terminal Aerodrome Forecast
Issued by NWS

Home | Current Version | Previous Version | Text Only | Print | Product List | Glossary On
Versions: 1 2 3 4 5 6 7 8 9 10 11 12 13 14 15 16 17 18 19 20 21 22 23 24 25 26 27 28
000
FTUS43 KGRB 220200 AAA
TAFATW
TAF AMD
KATW 220223Z 2202/2224 12005KT 5SM BR BKN006 OVC012
     FM220400 VRB03KT 3SM BR BKN004 OVC012
     FM220700 VRB03KT 1SM BR OVC003
     FM221400 10005KT 4SM BR SCT006 BKN012
     FM221900 08006KT 6SM HZ BKN020 BKN035
     FM222200 09006KT 6SM HZ SCT025=

USA.gov is the U.S. government's official web portal to all federal, state and local government web resources and services.